Waynesville, OH (45068)

6:51 PM EDT on May 05, 2015 (GMT -0400)
Rivers Edge | | Change Station
CLOSE
Current Station
Personal Weather Station
Location: Corwin, OH
Elevation: 840 ft
Nearby Weather Stations

Elev 840 ft 39.53 °N, 84.06 °W | Updated 4 seconds ago

Partly Cloudy
Partly Cloudy
82.6 °F
Feels Like 82 °F
N
7.0
Wind Variable Wind from SW
Gusts 10.0 mph

Today
High -- | Low -- °F
--% Chance of Precip.
Yesterday
High -- | Low -- °F
Precip. -- in
6:32 AM 8:33 PM
Waning Gibbous, 97% visible
Pressure 30.16 in
Visibility 10.0 miles
Clouds Scattered Clouds 9000 ft
Heat Index 82 °F
Dew Point 58 °F
Humidity 43%
Rainfall 0.00 in
Snow Depth Not available.
UV 2 out of 12
Pollen 10.40 out of 12
Air Quality Not available.
Flu Activity Regional
METAR KMGY 052153Z AUTO 25006KT 10SM SCT090 27/11 A3018 RMK AO2 SLP212 T02720106

More Conditions Fewer Conditions

Pressure 30.16 in
Visibility 10.0 miles
Clouds Scattered Clouds 9000 ft
Heat Index 82 °F
Dew Point 58 °F
Humidity 43%
Rainfall 0.00 in
Snow Depth Not available.
UV 2 out of 12
Pollen 10.40 out of 12
Air Quality Not available.
Flu Activity Regional
METAR KMGY 052153Z AUTO 25006KT 10SM SCT090 27/11 A3018 RMK AO2 SLP212 T02720106

More Conditions Fewer Conditions

10-Day Weather Forecast

Almanac

Astronomy

May. 05, 2015 Rise Set
Actual Time
Civil Twilight
Nautical Twilight
Astronomical Twilight
Moon
Length of Visible Light
Length of Day
Tomorrow will be .
, % of the Moon is Illuminated

Today's Extremes

State Highs State Lows

Community

WunderPhotos

Upload Photos

1,819,000 photos uploaded!

WunderBlogs® & News

Nearby

Air Quality

  Air Quality AQ Index Pollutant
Not available.

Snow Depth

Station Depth Elevation

Earthquake Activity

City Distance Mag. Time & Date
Minimum magnitude displayed is 2.5.

Coastal Water Temperatures

Place Temperature

Stations

Nearby Weather Stations

Station Location Temp. Windchill Dew Point Humidity Wind Precip. Elev Updated Type